Saratoga, CA (95070)

5:20 PM PDT on October 31, 2014 (GMT -0700)
Scotland Dr. near Glasgow Dr. | Change Station
CLOSE
Current Station
Personal Weather Station
Location: Saratoga, CA
Elevation: 375 ft
Nearby Weather Stations

Elev 375 ft 37.27 °N, 122.02 °W | Updated 5 seconds ago

Overcast
Overcast
56.0 °F
Feels Like 56.0 °F
N
0.0
Wind Variable Wind from SW
Gusts 0.0 mph

Today
High -- | Low -- °F
--% Chance of Precip.
Yesterday
High -- | Low -- °F
Precip. -- in
7:31 AM 6:11 PM
First Quarter, 60% visible
Pressure 29.80 in
Visibility 10.0 miles
Clouds Few 600 ft
Scattered Clouds 5500 ft
Mostly Cloudy 10000 ft
Dew Point 53 °F
Humidity 91%
Rainfall 0.36 in
Snow Depth Not available.
UV 0.0 out of 12
Pollen .50 out of 12
Air Quality Not available.
Flu Activity Not available.
METAR KSJC 312353Z 00000KT 10SM FEW006 SCT055 BKN100 13/12 A2980 RMK AO2 RAE01 SLP091 P0000 60051 T01330122 10172 20128 56008

More Conditions Fewer Conditions

Pressure 29.80 in
Visibility 10.0 miles
Clouds Few 600 ft
Scattered Clouds 5500 ft
Mostly Cloudy 10000 ft
Dew Point 53 °F
Humidity 91%
Rainfall 0.36 in
Snow Depth Not available.
UV 0.0 out of 12
Pollen .50 out of 12
Air Quality Not available.
Flu Activity Not available.
METAR KSJC 312353Z 00000KT 10SM FEW006 SCT055 BKN100 13/12 A2980 RMK AO2 RAE01 SLP091 P0000 60051 T01330122 10172 20128 56008

More Conditions Fewer Conditions

10-Day Weather Forecast

Almanac

Astronomy

Oct. 31, 2014 Rise Set
Actual Time
Civil Twilight
Nautical Twilight
Astronomical Twilight
Moon
Length of Visible Light
Length of Day
Tomorrow will be .
, % of the Moon is Illuminated

Today's Extremes

State Highs State Lows

Community

WunderPhotos

Upload Photos

1,766,792 photos uploaded!

WunderBlogs® & News

Nearby

Air Quality

  Air Quality AQ Index Pollutant
Not available.

Snow Depth

Station Depth Elevation

Earthquake Activity

City Distance Mag. Time & Date
Minimum magnitude displayed is 2.5.

Coastal Water Temperatures

Place Temperature

Nearby Weather Stations